createdAt,value
2018-12-01T09:08:14.971Z,43.77
2018-12-01T09:10:42.888Z,32.20
2018-12-01T09:13:10.732Z,34.93
2018-12-01T09:15:38.563Z,44.93
2018-12-01T09:18:06.531Z,32.70
2018-12-01T09:20:34.400Z,33.27
2018-12-01T09:23:02.640Z,37.30
2018-12-01T09:25:30.542Z,37.57
2018-12-01T09:27:58.403Z,40.13
2018-12-01T09:30:26.884Z,43.10
2018-12-01T09:32:54.683Z,43.90
2018-12-01T09:35:22.555Z,36.43
2018-12-01T09:37:50.429Z,35.67
2018-12-01T09:40:18.843Z,34.97
2018-12-01T09:42:46.769Z,35.57
2018-12-01T09:45:16.990Z,35.87
2018-12-01T09:47:45.327Z,36.20
2018-12-01T09:50:13.739Z,33.60
2018-12-01T09:52:41.561Z,36.80
2018-12-01T09:55:11.575Z,35.07
2018-12-01T09:57:39.841Z,31.97
2018-12-01T10:00:09.784Z,33.47
2018-12-01T10:02:37.643Z,32.83
2018-12-01T10:05:06.578Z,33.67
2018-12-01T10:07:34.379Z,37.43
2018-12-01T10:10:02.335Z,33.47
2018-12-01T10:12:30.341Z,43.10
2018-12-01T10:14:58.434Z,33.40
2018-12-01T10:17:26.264Z,34.13
2018-12-01T10:19:54.083Z,26.27
2018-12-01T10:22:22.011Z,23.50
2018-12-01T10:24:50.310Z,22.77
2018-12-01T10:27:18.229Z,22.50
2018-12-01T10:29:46.061Z,24.47
2018-12-01T10:32:13.827Z,31.13
2018-12-01T10:34:41.684Z,30.03
2018-12-01T10:37:09.512Z,32.57
2018-12-01T10:39:38.808Z,35.83
2018-12-01T10:42:06.819Z,37.70
2018-12-01T10:44:34.687Z,30.13
2018-12-01T10:47:02.504Z,34.70
2018-12-01T10:49:30.517Z,31.17
2018-12-01T10:51:58.344Z,33.67
2018-12-01T10:54:26.159Z,31.20
2018-12-01T10:56:54.087Z,30.73
2018-12-01T10:59:21.896Z,28.93
2018-12-01T11:01:55.086Z,34.50
2018-12-01T11:04:28.291Z,34.63
2018-12-01T11:06:56.104Z,36.13
2018-12-01T11:09:23.907Z,35.83
2018-12-01T11:11:51.731Z,38.33
2018-12-01T11:14:19.545Z,35.53
2018-12-01T11:16:47.376Z,37.03
2018-12-01T11:19:16.383Z,33.97
2018-12-01T11:21:44.306Z,35.90
2018-12-01T11:24:12.237Z,37.00
2018-12-01T11:26:40.089Z,48.87
2018-12-01T11:29:08.068Z,37.03
2018-12-01T11:31:35.975Z,37.10
2018-12-01T11:34:03.908Z,37.10
2018-12-01T11:36:31.793Z,35.87
2018-12-01T11:38:59.702Z,38.40
2018-12-01T11:41:27.551Z,31.13
2018-12-01T11:43:55.451Z,31.87
2018-12-01T11:46:23.445Z,29.87
2018-12-01T11:48:51.472Z,30.30
2018-12-01T11:51:19.436Z,29.53
2018-12-01T11:53:47.349Z,27.90
2018-12-01T11:56:15.232Z,28.47
2018-12-01T11:58:43.093Z,29.40
2018-12-01T12:01:11.022Z,31.33
2018-12-01T12:03:38.880Z,29.43
2018-12-01T12:06:06.817Z,28.87
2018-12-01T12:08:34.775Z,27.83
2018-12-01T12:11:02.588Z,30.97
2018-12-01T12:13:30.451Z,30.17
2018-12-01T12:15:58.332Z,31.43
2018-12-01T12:18:26.292Z,28.30
2018-12-01T12:20:54.268Z,28.53
2018-12-01T12:23:22.085Z,28.27
2018-12-01T12:25:49.899Z,39.37
2018-12-01T12:28:17.716Z,30.90
2018-12-01T12:30:45.674Z,32.10
2018-12-01T12:33:13.547Z,27.93
2018-12-01T12:35:41.369Z,26.07
2018-12-01T12:38:09.255Z,26.93
2018-12-01T12:40:37.219Z,32.00
2018-12-01T12:43:05.037Z,33.53
2018-12-01T12:45:32.838Z,26.40
2018-12-01T12:48:00.671Z,25.33
2018-12-01T12:50:28.536Z,23.27
2018-12-01T12:52:56.615Z,23.03
2018-12-01T12:55:25.027Z,22.97
2018-12-01T12:57:52.847Z,22.13
2018-12-01T13:00:21.260Z,23.53
2018-12-01T13:02:49.887Z,23.30
2018-12-01T13:05:19.199Z,24.10
2018-12-01T13:07:47.132Z,23.87
2018-12-01T13:10:15.639Z,24.00
2018-12-01T13:12:43.576Z,27.10
2018-12-01T13:15:12.083Z,27.37
2018-12-01T13:17:39.896Z,22.20
2018-12-01T13:20:09.513Z,22.10
2018-12-01T13:22:37.360Z,23.27
2018-12-01T13:25:06.276Z,29.27
2018-12-01T13:27:34.147Z,25.90
2018-12-01T13:30:02.065Z,24.73
2018-12-01T13:32:29.987Z,27.20
2018-12-01T13:34:57.956Z,20.27
2018-12-01T13:37:25.868Z,43.63
2018-12-01T13:39:53.853Z,79.03
2018-12-01T13:42:21.695Z,42.13
2018-12-01T13:44:49.579Z,26.73
2018-12-01T13:47:17.435Z,26.83
2018-12-01T13:49:45.360Z,26.93
2018-12-01T13:52:14.959Z,23.50
2018-12-01T13:54:42.860Z,24.67
2018-12-01T13:57:10.728Z,21.47
2018-12-01T13:59:38.535Z,26.63
2018-12-01T14:02:06.866Z,21.13
2018-12-01T14:04:34.683Z,25.27
2018-12-01T14:07:02.608Z,24.23
2018-12-01T14:09:30.467Z,25.53
2018-12-01T14:11:58.336Z,20.10
2018-12-01T14:14:26.158Z,19.60
2018-12-01T14:16:53.984Z,22.13
2018-12-01T14:19:21.811Z,19.67
2018-12-01T14:21:49.667Z,23.73
2018-12-01T14:24:17.648Z,30.23
2018-12-01T14:26:45.451Z,33.67
2018-12-01T14:29:13.259Z,34.30
2018-12-01T14:31:41.091Z,28.93
2018-12-01T14:34:08.951Z,20.40
2018-12-01T14:36:36.916Z,23.17
2018-12-01T14:39:06.338Z,29.30
2018-12-01T14:41:34.262Z,35.78
2018-12-01T14:44:02.256Z,34.98
2018-12-01T14:46:30.173Z,36.68
2018-12-01T14:48:58.191Z,38.78
2018-12-01T14:51:26.108Z,35.70
2018-12-01T14:53:54.051Z,37.53
2018-12-01T14:56:21.988Z,39.33
2018-12-01T14:58:49.787Z,35.35
2018-12-01T15:01:17.706Z,43.13
2018-12-01T15:03:45.535Z,36.65
2018-12-01T15:06:13.359Z,42.23
2018-12-01T15:08:41.228Z,43.87
2018-12-01T15:11:09.183Z,56.75
2018-12-01T15:13:37.119Z,54.35
2018-12-01T15:16:05.427Z,44.98
2018-12-01T15:18:33.276Z,48.28
2018-12-01T15:21:01.163Z,36.45
2018-12-01T15:23:28.991Z,37.60
2018-12-01T15:25:56.895Z,33.55
2018-12-01T15:28:24.727Z,36.93
2018-12-01T15:30:52.639Z,47.15
2018-12-01T15:33:20.563Z,42.13
2018-12-01T15:35:48.377Z,50.65
2018-12-01T15:38:16.512Z,53.42
2018-12-01T15:40:46.076Z,40.88
2018-12-01T15:43:13.951Z,42.20
2018-12-01T15:45:41.956Z,42.23
2018-12-01T15:48:09.888Z,52.95
2018-12-01T15:50:37.802Z,54.95
2018-12-01T15:53:07.424Z,55.73
2018-12-01T15:55:35.348Z,43.35
2018-12-01T15:58:03.167Z,66.72
2018-12-01T16:00:31.188Z,52.98
2018-12-01T16:02:58.995Z,43.63
2018-12-01T16:05:26.880Z,49.03
2018-12-01T16:07:55.456Z,46.02
2018-12-01T16:10:23.567Z,52.38
2018-12-01T16:12:54.979Z,60.28
2018-12-01T16:15:23.411Z,55.88
2018-12-01T16:17:51.231Z,48.15
2018-12-01T16:20:19.260Z,40.95
2018-12-01T16:22:47.443Z,61.42
2018-12-01T16:25:15.995Z,48.50
2018-12-01T16:27:44.287Z,58.80
2018-12-01T16:30:13.844Z,57.70
2018-12-01T16:32:41.743Z,39.40
2018-12-01T16:35:09.723Z,37.93
2018-12-01T16:37:37.693Z,44.48
2018-12-01T16:40:08.007Z,78.90
2018-12-01T16:42:36.047Z,82.37
2018-12-01T16:45:03.912Z,82.10
2018-12-01T16:47:32.047Z,56.68
2018-12-01T16:50:00.084Z,52.20
2018-12-01T16:52:27.971Z,38.90
2018-12-01T16:54:55.828Z,32.38
2018-12-01T16:57:23.707Z,35.85
2018-12-01T16:59:51.573Z,54.00
2018-12-01T17:02:19.397Z,40.08
2018-12-01T17:04:47.295Z,43.85
2018-12-01T17:07:15.188Z,53.20
2018-12-01T17:09:43.096Z,108.07
2018-12-01T17:12:11.019Z,47.78
2018-12-01T17:14:38.989Z,44.03
2018-12-01T17:17:06.863Z,58.02
2018-12-01T17:19:34.777Z,55.05
2018-12-01T17:22:02.704Z,54.60
2018-12-01T17:24:30.573Z,66.75
2018-12-01T17:26:58.479Z,69.85
2018-12-01T17:29:26.343Z,64.70
2018-12-01T17:31:54.223Z,57.05
2018-12-01T17:34:22.232Z,61.35
2018-12-01T17:36:50.164Z,68.72
2018-12-01T17:39:18.068Z,85.67
2018-12-01T17:41:45.995Z,83.35
2018-12-01T17:44:13.800Z,67.70
2018-12-01T17:46:41.816Z,77.85
2018-12-01T17:49:09.673Z,87.53
2018-12-01T17:51:37.567Z,83.60
2018-12-01T17:54:07.698Z,75.70
2018-12-01T17:56:35.664Z,82.75
2018-12-01T17:59:03.663Z,57.43
2018-12-01T18:01:31.659Z,52.67
2018-12-01T18:03:59.584Z,51.45
2018-12-01T18:06:27.612Z,56.85
2018-12-01T18:08:55.578Z,57.05
2018-12-01T18:11:23.419Z,66.02
2018-12-01T18:13:51.312Z,72.85
2018-12-01T18:16:19.264Z,67.82
2018-12-01T18:18:47.306Z,59.27
2018-12-01T18:21:15.192Z,56.50
2018-12-01T18:23:43.077Z,69.12
2018-12-01T18:26:10.931Z,56.88
2018-12-01T18:28:39.756Z,48.70
2018-12-01T18:31:12.424Z,40.58
2018-12-01T18:33:41.320Z,49.03
2018-12-01T18:36:10.251Z,55.78
2018-12-01T18:38:38.156Z,54.05
2018-12-01T18:41:06.883Z,42.23
2018-12-01T18:43:34.752Z,39.38
2018-12-01T18:46:03.332Z,37.75
2018-12-01T18:48:31.127Z,40.85
2018-12-01T18:50:59.060Z,41.40
2018-12-01T18:53:26.964Z,47.53
2018-12-01T18:55:55.595Z,44.60
2018-12-01T18:58:23.416Z,46.00
2018-12-01T19:00:51.838Z,45.70
2018-12-01T19:03:20.356Z,47.80
2018-12-01T19:05:48.278Z,47.53
2018-12-01T19:08:16.098Z,51.37
2018-12-01T19:10:43.903Z,46.48
2018-12-01T19:13:11.740Z,44.58
2018-12-01T19:15:39.700Z,46.60
2018-12-01T19:18:07.885Z,44.88
2018-12-01T19:20:35.978Z,41.48
2018-12-01T19:23:03.876Z,41.40
2018-12-01T19:25:31.727Z,53.05
2018-12-01T19:27:59.552Z,53.13
2018-12-01T19:30:27.364Z,64.67
2018-12-01T19:32:55.896Z,69.15
2018-12-01T19:35:23.703Z,66.53
2018-12-01T19:37:52.184Z,65.35
2018-12-01T19:40:21.543Z,63.98
2018-12-01T19:42:49.374Z,71.57
2018-12-01T19:45:17.179Z,68.80
2018-12-01T19:47:45.111Z,67.30
2018-12-01T19:50:14.023Z,61.05
2018-12-01T19:52:41.908Z,59.20
2018-12-01T19:55:10.460Z,53.02
2018-12-01T19:57:39.052Z,53.40
2018-12-01T20:00:12.825Z,53.48
2018-12-01T20:02:40.747Z,52.23
2018-12-01T20:05:09.564Z,50.52
2018-12-01T20:07:37.434Z,53.78
2018-12-01T20:10:08.263Z,49.60
2018-12-01T20:12:36.184Z,55.43
2018-12-01T20:15:04.220Z,54.03
2018-12-01T20:17:32.072Z,49.98
2018-12-01T20:19:59.951Z,53.05
2018-12-01T20:22:27.816Z,52.35
2018-12-01T20:24:55.692Z,61.42
2018-12-01T20:27:23.605Z,57.17
2018-12-01T20:29:51.532Z,60.70
2018-12-01T20:32:19.380Z,69.37
2018-12-01T20:34:47.304Z,63.98
2018-12-01T20:37:17.031Z,60.95
2018-12-01T20:39:45.045Z,58.90
2018-12-01T20:42:12.907Z,61.30
2018-12-01T20:44:40.784Z,59.58
2018-12-01T20:47:08.659Z,55.33
2018-12-01T20:49:36.515Z,53.40
2018-12-01T20:52:04.643Z,48.63
2018-12-01T20:54:47.007Z,46.10
2018-12-01T20:57:15.744Z,40.05
2018-12-01T20:59:43.643Z,34.18
2018-12-01T21:02:11.627Z,37.13
2018-12-01T21:04:39.584Z,38.20
2018-12-01T21:07:07.518Z,37.00
2018-12-01T21:09:35.324Z,39.73
2018-12-01T21:12:03.452Z,39.80
2018-12-01T21:14:31.256Z,41.83
2018-12-01T21:16:59.388Z,38.50
2018-12-01T21:19:27.260Z,37.15
2018-12-01T21:21:55.228Z,38.00
2018-12-01T21:24:23.132Z,38.80
2018-12-01T21:26:50.959Z,38.17
2018-12-01T21:29:18.771Z,40.15
2018-12-01T21:31:46.642Z,41.53
2018-12-01T21:34:14.510Z,45.35
2018-12-01T21:36:42.325Z,44.42
2018-12-01T21:39:10.160Z,47.70
2018-12-01T21:41:38.163Z,48.63
2018-12-01T21:44:06.251Z,46.02
2018-12-01T21:46:34.160Z,46.77
2018-12-01T21:49:02.036Z,45.63
2018-12-01T21:51:29.843Z,46.18
2018-12-01T21:53:58.257Z,47.43
2018-12-01T21:56:26.100Z,49.85
2018-12-01T21:58:54.003Z,45.80
2018-12-01T22:01:21.836Z,49.83
2018-12-01T22:03:49.839Z,49.70
2018-12-01T22:06:17.751Z,46.73
2018-12-01T22:08:45.581Z,52.60
2018-12-01T22:11:13.464Z,49.80
2018-12-01T22:13:41.309Z,46.58
2018-12-01T22:16:09.675Z,43.52
2018-12-01T22:18:37.618Z,44.20
2018-12-01T22:21:05.768Z,48.38
2018-12-01T22:23:33.655Z,50.38
2018-12-01T22:26:01.559Z,47.65
2018-12-01T22:28:35.207Z,47.43
2018-12-01T22:30:57.540Z,50.10
2018-12-01T22:33:27.179Z,50.15
2018-12-01T22:35:55.092Z,48.68
2018-12-01T22:38:23.331Z,46.90
2018-12-01T22:40:51.237Z,42.38
2018-12-01T22:43:19.068Z,38.70
2018-12-01T22:45:46.963Z,40.65
2018-12-01T22:48:16.549Z,42.50
2018-12-01T22:50:45.106Z,38.73
2018-12-01T22:53:13.236Z,39.78
2018-12-01T22:55:41.567Z,38.15
2018-12-01T22:58:13.779Z,40.83
2018-12-01T23:00:52.681Z,46.13
2018-12-01T23:03:20.660Z,40.67
2018-12-01T23:05:48.560Z,45.35
2018-12-01T23:08:17.203Z,43.58
2018-12-01T23:10:45.131Z,44.58
2018-12-01T23:13:13.035Z,41.37
2018-12-01T23:15:40.944Z,45.30
2018-12-01T23:18:10.383Z,46.13
2018-12-01T23:20:38.643Z,43.50
2018-12-01T23:23:06.922Z,43.35
2018-12-01T23:25:34.839Z,42.70
2018-12-01T23:28:02.797Z,41.28
2018-12-01T23:30:30.975Z,43.45
2018-12-01T23:33:00.319Z,44.05
2018-12-01T23:35:28.829Z,42.00
2018-12-01T23:37:56.816Z,43.92
2018-12-01T23:40:24.728Z,46.08
2018-12-01T23:42:52.687Z,42.20
2018-12-01T23:45:20.712Z,43.78
2018-12-01T23:47:48.631Z,45.70
2018-12-01T23:50:20.051Z,42.53
2018-12-01T23:52:48.678Z,45.73
2018-12-01T23:55:16.551Z,45.78
2018-12-01T23:57:44.565Z,44.95
